Time;durP1;ratioP1;P1;durP2;ratioP2;P2;SDS_P1;SDS_P2;PMS_P1;PMS_P2;Temp;Humidity;BMP_temperature;BMP_pressure;BME280_temperature;BME280_humidity;BME280_pressure;Samples;Min_cycle;Max_cycle;Signal;HPM_P1;HPM_P2
2022/07/14 00:00:58;;;;;;;;;22.25;20.50;;;;;30.08;24.39;101409.72;5040418;28;45713;-61
2022/07/14 00:03:23;;;;;;;;;24.25;21.50;;;;;30.07;23.99;101407.16;5040461;28;45278;-61
2022/07/14 00:05:49;;;;;;;;;23.25;22.00;;;;;30.06;24.58;101405.44;5033046;28;45468;-62
2022/07/14 00:08:14;;;;;;;;;20.75;20.25;;;;;30.02;24.59;101395.88;5044145;28;45218;-62
2022/07/14 00:10:39;;;;;;;;;25.50;23.00;;;;;30.02;24.65;101404.00;5032037;28;45257;-62
2022/07/14 00:13:05;;;;;;;;;27.00;23.50;;;;;30.00;24.60;101396.00;5060617;28;45369;-62
2022/07/14 00:15:31;;;;;;;;;32.75;27.50;;;;;29.98;24.77;101406.97;5042823;28;45263;-62
2022/07/14 00:17:58;;;;;;;;;28.50;26.00;;;;;29.99;24.61;101405.13;5042828;28;45445;-62
2022/07/14 00:20:24;;;;;;;;;28.25;26.00;;;;;29.97;24.53;101397.13;5060340;28;45323;-62
2022/07/14 00:22:50;;;;;;;;;31.25;29.75;;;;;29.95;24.51;101396.41;5044072;28;48164;-62
2022/07/14 00:25:15;;;;;;;;;30.75;27.75;;;;;29.90;24.76;101389.66;5040156;28;45333;-62
2022/07/14 00:27:41;;;;;;;;;39.00;30.00;;;;;29.91;24.82;101402.22;5040646;28;45320;-62
2022/07/14 00:30:07;;;;;;;;;33.50;30.25;;;;;29.92;24.97;101393.94;5040383;28;45365;-62
2022/07/14 00:32:36;;;;;;;;;31.75;30.25;;;;;29.91;24.94;101394.97;5039966;28;47155;-62
2022/07/14 00:35:05;;;;;;;;;31.50;29.50;;;;;29.90;24.96;101392.34;5040311;28;45326;-62
2022/07/14 00:37:30;;;;;;;;;38.75;30.00;;;;;29.89;25.10;101382.53;5022414;28;45255;-62
2022/07/14 00:39:56;;;;;;;;;34.50;30.50;;;;;29.89;24.89;101379.84;5039908;28;45442;-62
2022/07/14 00:42:37;;;;;;;;;33.75;29.25;;;;;29.87;24.76;101363.66;5039995;28;46142;-62
2022/07/14 00:45:05;;;;;;;;;29.25;24.75;;;;;29.84;24.94;101361.22;5040095;28;45361;-62
2022/07/14 00:47:30;;;;;;;;;30.00;26.75;;;;;29.83;24.85;101363.06;5039651;28;45383;-63
2022/07/14 00:49:56;;;;;;;;;27.00;24.25;;;;;29.80;24.89;101355.22;5039851;28;45368;-63
2022/07/14 00:52:24;;;;;;;;;24.50;23.75;;;;;29.79;24.94;101348.06;5039602;28;45377;-62
2022/07/14 00:54:49;;;;;;;;;23.75;21.50;;;;;29.79;25.07;101358.91;5039713;28;45214;-63
2022/07/14 00:57:15;;;;;;;;;26.00;22.00;;;;;29.78;25.02;101350.94;5039821;28;45234;-64
2022/07/14 00:59:41;;;;;;;;;19.75;19.00;;;;;29.76;25.36;101359.19;5039851;28;45574;-62
2022/07/14 01:02:06;;;;;;;;;23.75;22.50;;;;;29.76;24.97;101361.03;5039646;28;46161;-63
2022/07/14 01:04:31;;;;;;;;;26.75;24.00;;;;;29.74;25.16;101365.72;5040027;28;45230;-63
2022/07/14 01:06:57;;;;;;;;;26.75;22.75;;;;;29.72;25.10;101360.41;5039388;28;45440;-63
2022/07/14 01:09:22;;;;;;;;;24.50;22.50;;;;;29.71;25.02;101361.44;5021666;28;45373;-63
2022/07/14 01:11:47;;;;;;;;;23.50;20.50;;;;;29.71;25.35;101371.41;5058614;28;45360;-63
2022/07/14 01:14:13;;;;;;;;;28.50;26.25;;;;;29.68;25.48;101364.41;5060049;28;45606;-62
2022/07/14 01:16:38;;;;;;;;;33.50;27.75;;;;;29.65;25.49;101367.38;5059556;28;45311;-62
2022/07/14 01:19:03;;;;;;;;;23.00;23.00;;;;;29.63;24.98;101369.34;5059799;28;45483;-62
2022/07/14 01:21:29;;;;;;;;;29.75;25.25;;;;;29.64;25.56;101373.78;5053600;28;45447;-62
2022/07/14 01:23:54;;;;;;;;;26.25;25.00;;;;;29.61;25.30;101371.31;5021397;28;45439;-63
2022/07/14 01:26:19;;;;;;;;;16.25;13.00;;;;;29.58;25.25;101372.44;5039601;28;45355;-62
2022/07/14 01:28:45;;;;;;;;;25.00;23.50;;;;;29.56;25.54;101376.28;5039478;28;46561;-62
2022/07/14 01:31:11;;;;;;;;;26.00;23.25;;;;;29.51;25.50;101373.97;5039212;28;45320;-62
2022/07/14 01:33:36;;;;;;;;;27.00;22.75;;;;;29.48;25.54;101374.22;5021720;28;45619;-62
2022/07/14 01:36:02;;;;;;;;;27.25;23.75;;;;;29.44;25.47;101370.91;5039684;28;45380;-62
2022/07/14 01:38:27;;;;;;;;;25.75;23.00;;;;;29.45;25.56;101380.75;5039603;28;45255;-62
2022/07/14 01:40:52;;;;;;;;;28.50;25.75;;;;;29.39;25.27;101383.97;5039003;28;45282;-62
2022/07/14 01:43:17;;;;;;;;;27.50;24.50;;;;;29.39;25.57;101385.84;5039312;28;45207;-62
2022/07/14 01:45:43;;;;;;;;;31.25;26.75;;;;;29.35;25.59;101379.81;5039388;28;45385;-62
2022/07/14 01:48:08;;;;;;;;;22.50;22.00;;;;;29.32;25.80;101380.06;5039505;28;45242;-62
2022/07/14 01:50:33;;;;;;;;;24.75;23.00;;;;;29.31;25.79;101383.78;5039074;28;45357;-61
2022/07/14 01:52:59;;;;;;;;;24.50;23.00;;;;;29.28;26.18;101378.56;5039470;28;45283;-62
2022/07/14 01:55:24;;;;;;;;;23.25;22.50;;;;;29.26;25.85;101376.00;5039149;28;45222;-62
2022/07/14 01:57:49;;;;;;;;;23.00;22.75;;;;;29.24;25.85;101377.97;5039243;28;45453;-62
2022/07/14 02:00:15;;;;;;;;;22.75;17.50;;;;;29.23;25.82;101383.53;5038978;28;46326;-62
2022/07/14 02:02:40;;;;;;;;;24.75;23.00;;;;;29.21;26.34;101378.25;5039015;28;45167;-62
2022/07/14 02:05:09;;;;;;;;;20.75;19.00;;;;;29.18;26.25;101373.06;5039256;28;45210;-62
2022/07/14 02:07:34;;;;;;;;;21.00;19.50;;;;;29.18;26.09;101378.47;5039228;28;45397;-62
2022/07/14 02:12:44;;;;;;;;;24.25;21.50;;;;;29.12;25.67;101354.63;5059109;28;45616;-62
2022/07/14 02:15:09;;;;;;;;;18.75;18.00;;;;;29.11;26.06;101353.81;5059113;28;45308;-62
2022/07/14 02:17:35;;;;;;;;;23.00;18.50;;;;;29.08;26.20;101356.78;5058995;28;45345;-62
2022/07/14 02:20:00;;;;;;;;;23.25;21.50;;;;;29.09;26.21;101353.06;5062749;28;45411;-62
2022/07/14 02:22:26;;;;;;;;;23.25;21.75;;;;;29.07;26.29;101344.22;5048913;28;45438;-62
2022/07/14 02:24:51;;;;;;;;;21.00;20.75;;;;;29.06;26.28;101357.88;5014730;28;45392;-62
2022/07/14 02:27:16;;;;;;;;;23.00;21.25;;;;;29.03;26.24;101357.16;5062399;28;45508;-62
2022/07/14 02:29:41;;;;;;;;;22.25;19.00;;;;;28.99;27.01;101341.28;5062370;28;45297;-62
2022/07/14 02:32:07;;;;;;;;;19.00;18.00;;;;;29.03;26.25;101353.56;5062139;28;45375;-62
2022/07/14 02:34:32;;;;;;;;;21.00;19.00;;;;;29.01;26.51;101350.16;5062386;28;45237;-62
2022/07/14 02:36:59;;;;;;;;;20.25;18.25;;;;;28.97;26.57;101351.41;5062260;28;45455;-62
2022/07/14 02:39:24;;;;;;;;;20.75;18.00;;;;;28.98;26.68;101353.09;5061918;28;46663;-62
2022/07/14 02:41:49;;;;;;;;;12.25;11.50;;;;;28.97;26.67;101354.09;5062201;28;45236;-62
2022/07/14 02:44:15;;;;;;;;;12.00;10.00;;;;;28.92;26.75;101351.78;5062449;28;45204;-62
2022/07/14 02:46:40;;;;;;;;;11.00;10.00;;;;;28.85;26.90;101350.56;5062303;28;45213;-62
2022/07/14 02:49:06;;;;;;;;;9.50;7.25;;;;;28.82;26.74;101351.66;5062129;28;45245;-62
2022/07/14 02:51:31;;;;;;;;;12.75;10.25;;;;;28.76;26.87;101340.50;5044077;28;45253;-62
2022/07/14 02:53:56;;;;;;;;;9.00;9.00;;;;;28.76;27.09;101346.75;5061961;28;45216;-62
2022/07/14 02:56:22;;;;;;;;;12.00;10.75;;;;;28.73;26.94;101341.63;5062240;28;45448;-62
2022/07/14 02:58:47;;;;;;;;;11.00;11.00;;;;;28.71;26.80;101338.16;5061778;28;46135;-62
2022/07/14 03:01:12;;;;;;;;;12.25;9.50;;;;;28.69;27.09;101340.13;5043659;28;45363;-61
2022/07/14 03:03:38;;;;;;;;;10.75;10.75;;;;;28.66;26.90;101343.06;5062184;28;45582;-62
2022/07/14 03:06:11;;;;;;;;;13.50;11.25;;;;;28.63;26.90;101343.28;5061910;28;45296;-62
2022/07/14 03:08:39;;;;;;;;;22.00;21.75;;;;;28.59;27.13;101340.00;5061531;28;46522;-62
2022/07/14 03:11:04;;;;;;;;;26.25;26.25;;;;;28.58;27.00;101340.13;5060997;28;45361;-62
2022/07/14 03:13:30;;;;;;;;;34.75;29.75;;;;;28.56;27.08;101336.69;5061858;28;45317;-62
2022/07/14 03:15:56;;;;;;;;;36.50;30.00;;;;;28.52;27.08;101338.78;5061728;28;45345;-62
2022/07/14 03:18:21;;;;;;;;;34.25;31.50;;;;;28.51;27.61;101345.16;5061718;28;45238;-62
2022/07/14 03:20:46;;;;;;;;;34.25;31.25;;;;;28.48;27.51;101346.28;5061472;28;45439;-61
2022/07/14 03:23:11;;;;;;;;;28.25;26.75;;;;;28.44;27.17;101336.72;5040352;28;45342;-62
2022/07/14 03:25:42;;;;;;;;;28.75;26.50;;;;;28.40;27.26;101335.22;5039910;28;45273;-62
2022/07/14 03:28:07;;;;;;;;;28.50;23.50;;;;;28.40;27.58;101345.19;5041282;28;46267;-62
2022/07/14 03:30:32;;;;;;;;;23.75;21.75;;;;;28.36;27.70;101340.03;5040768;28;45321;-61
2022/07/14 03:32:58;;;;;;;;;18.25;18.25;;;;;28.32;27.30;101343.94;5041420;28;45345;-62
2022/07/14 03:35:23;;;;;;;;;25.00;22.75;;;;;28.29;27.52;101338.81;5041409;28;45319;-62
2022/07/14 03:37:49;;;;;;;;;27.75;23.00;;;;;28.27;27.37;101337.22;5041159;28;45370;-61
2022/07/14 03:40:14;;;;;;;;;20.00;17.25;;;;;28.24;27.54;101343.72;5041044;28;45398;-61
2022/07/14 03:42:40;;;;;;;;;21.25;18.25;;;;;28.20;27.54;101343.09;5041282;28;45429;-61
2022/07/14 03:45:06;;;;;;;;;18.25;16.00;;;;;28.18;27.76;101339.66;5045952;28;45497;-61
2022/07/14 03:47:31;;;;;;;;;17.25;16.50;;;;;28.18;27.69;101345.06;5039625;28;46032;-61
2022/07/14 03:49:56;;;;;;;;;22.50;15.75;;;;;28.16;27.75;101352.44;5041048;28;45471;-61
2022/07/14 03:52:22;;;;;;;;;17.00;15.50;;;;;28.11;27.56;101329.47;5041180;28;45339;-61
2022/07/14 03:54:47;;;;;;;;;14.00;12.75;;;;;28.07;28.22;101338.78;5040779;28;45526;-61
2022/07/14 03:57:13;;;;;;;;;18.00;18.00;;;;;28.09;27.76;101339.50;5040692;28;46202;-61
2022/07/14 03:59:42;;;;;;;;;17.75;16.00;;;;;28.06;28.08;101337.91;5040810;28;45253;-62
2022/07/14 04:02:11;;;;;;;;;17.75;15.50;;;;;28.04;28.23;101332.66;5040806;28;45395;-61
2022/07/14 04:04:38;;;;;;;;;20.25;18.00;;;;;28.01;28.51;101340.09;5036303;28;45493;-61
2022/07/14 04:07:04;;;;;;;;;13.00;13.00;;;;;27.97;28.10;101334.06;5040738;28;46015;-62
2022/07/14 04:09:30;;;;;;;;;16.50;16.00;;;;;27.95;28.53;101349.56;5040261;28;45625;-62
2022/07/14 04:11:56;;;;;;;;;18.00;14.25;;;;;27.94;28.46;101346.94;5060961;28;45336;-61
2022/07/14 04:14:21;;;;;;;;;16.00;15.25;;;;;27.88;28.39;101343.75;5060739;28;45253;-61
2022/07/14 04:16:46;;;;;;;;;17.75;15.75;;;;;27.85;28.16;101341.31;5060644;28;47358;-61
2022/07/14 04:19:13;;;;;;;;;17.25;16.00;;;;;27.83;28.22;101342.41;5042809;28;45585;-61
2022/07/14 04:21:38;;;;;;;;;18.00;17.00;;;;;27.79;28.14;101341.78;5054477;28;45597;-61
2022/07/14 04:24:04;;;;;;;;;14.50;12.25;;;;;27.79;28.26;101349.88;5022161;28;45444;-61
2022/07/14 04:26:29;;;;;;;;;15.75;14.25;;;;;27.77;29.05;101346.44;5040546;28;46475;-61
2022/07/14 04:28:55;;;;;;;;;15.00;12.75;;;;;27.73;28.74;101348.53;5040466;28;45248;-61
2022/07/14 04:31:20;;;;;;;;;17.50;16.50;;;;;27.71;29.02;101338.81;5040309;28;45302;-61
2022/07/14 04:33:46;;;;;;;;;15.50;15.50;;;;;27.70;29.00;101347.91;5040434;28;45365;-61
2022/07/14 04:36:11;;;;;;;;;17.25;15.75;;;;;27.68;29.15;101352.56;5040221;28;47298;-61
2022/07/14 04:38:37;;;;;;;;;17.50;16.25;;;;;27.66;28.70;101357.22;5040116;28;45313;-61
2022/07/14 04:41:02;;;;;;;;;19.50;16.75;;;;;27.64;29.44;101362.72;5039426;28;45233;-61
2022/07/14 04:43:28;;;;;;;;;19.75;16.25;;;;;27.62;29.60;101356.56;5040273;28;45187;-61
2022/07/14 04:45:53;;;;;;;;;24.25;21.50;;;;;27.61;29.58;101354.00;5039968;28;46082;-61
2022/07/14 04:48:19;;;;;;;;;32.25;25.50;;;;;27.59;29.48;101355.97;5040195;28;45239;-61
2022/07/14 04:53:28;;;;;;;;;30.00;24.00;;;;;27.51;28.83;101354.72;5039769;28;45168;-60
2022/07/14 04:55:54;;;;;;;;;27.25;23.25;;;;;27.50;29.45;101357.56;5039997;28;45305;-60
2022/07/14 04:58:20;;;;;;;;;27.50;26.00;;;;;27.49;29.17;101362.06;5039894;28;45307;-61
2022/07/14 05:00:46;;;;;;;;;23.50;22.50;;;;;27.48;29.25;101365.75;5039747;28;45238;-61
2022/07/14 05:03:11;;;;;;;;;19.75;18.50;;;;;27.45;29.86;101359.75;5039827;28;45135;-60
2022/07/14 05:05:37;;;;;;;;;16.50;16.00;;;;;27.44;29.27;101364.25;5039957;28;45195;-61
2022/07/14 05:08:02;;;;;;;;;21.25;20.25;;;;;27.42;29.92;101360.81;5039922;28;45289;-60
2022/07/14 05:10:28;;;;;;;;;20.75;18.00;;;;;27.41;29.56;101359.09;5047931;28;45323;-61
2022/07/14 05:12:53;;;;;;;;;20.25;19.50;;;;;27.39;29.81;101359.19;5059831;28;45248;-61
2022/07/14 05:15:19;;;;;;;;;16.50;16.50;;;;;27.39;30.25;101361.03;5059887;28;45336;-61
2022/07/14 05:17:44;;;;;;;;;19.50;16.25;;;;;27.37;30.25;101357.56;5059707;28;45297;-61
2022/07/14 05:20:10;;;;;;;;;20.25;18.00;;;;;27.37;30.18;101366.53;5059942;28;45296;-61
2022/07/14 05:22:40;;;;;;;;;15.25;14.00;;;;;27.37;30.04;101365.66;5045036;28;45314;-61
2022/07/14 05:25:09;;;;;;;;;14.00;14.00;;;;;27.36;30.04;101366.66;5039304;28;45322;-62
2022/07/14 05:27:35;;;;;;;;;16.25;15.50;;;;;27.34;29.99;101361.34;5039255;28;45370;-61
2022/07/14 05:30:07;;;;;;;;;18.25;16.50;;;;;27.33;29.67;101365.06;5039737;28;45396;-61
2022/07/14 05:32:32;;;;;;;;;13.75;12.75;;;;;27.32;30.00;101366.03;5039250;28;45413;-62
2022/07/14 05:34:58;;;;;;;;;14.00;14.00;;;;;27.30;30.29;101350.94;5039485;28;45468;-61
2022/07/14 05:37:24;;;;;;;;;16.75;12.25;;;;;27.23;30.56;101347.81;5039519;28;45343;-61
2022/07/14 05:39:50;;;;;;;;;17.00;15.00;;;;;27.27;30.19;101353.84;5039439;28;45245;-61
2022/07/14 05:42:15;;;;;;;;;21.00;14.75;;;;;27.24;30.62;101353.13;5021390;28;45243;-61
2022/07/14 05:44:41;;;;;;;;;16.25;15.50;;;;;27.27;29.98;101351.16;5039430;28;46279;-61
2022/07/14 05:47:06;;;;;;;;;14.00;13.75;;;;;27.23;30.16;101355.91;5034852;28;45408;-61
2022/07/14 05:49:31;;;;;;;;;21.00;15.50;;;;;27.24;30.22;101360.34;5039628;28;45906;-61
2022/07/14 05:51:57;;;;;;;;;15.00;14.25;;;;;27.20;30.82;101353.47;5039929;28;45293;-61
2022/07/14 05:54:22;;;;;;;;;19.50;19.00;;;;;27.19;30.37;101354.44;5042675;28;45344;-61
2022/07/14 05:56:48;;;;;;;;;18.50;18.50;;;;;27.19;31.07;101355.28;5042549;28;45216;-61
2022/07/14 05:59:13;;;;;;;;;21.25;15.25;;;;;27.19;30.65;101357.13;5042927;28;45416;-61
2022/07/14 06:01:39;;;;;;;;;16.75;15.25;;;;;27.18;30.40;101361.69;5042442;28;45214;-62
2022/07/14 06:04:04;;;;;;;;;17.25;15.00;;;;;27.19;30.92;101366.06;5025022;28;47834;-62
2022/07/14 06:06:29;;;;;;;;;14.25;13.50;;;;;27.18;30.67;101361.69;5042826;28;45151;-62
2022/07/14 06:08:55;;;;;;;;;18.25;16.25;;;;;27.19;30.99;101362.53;5042802;28;45428;-62
2022/07/14 06:11:21;;;;;;;;;17.75;16.00;;;;;27.18;30.88;101366.19;5057943;28;45260;-62
2022/07/14 06:13:46;;;;;;;;;13.25;10.50;;;;;27.17;30.65;101365.34;5062594;28;46092;-62
2022/07/14 06:16:12;;;;;;;;;14.25;12.75;;;;;27.14;31.45;101360.16;5062452;28;45363;-62
2022/07/14 06:18:38;;;;;;;;;16.00;14.25;;;;;27.16;31.00;101360.91;5062799;28;45354;-62
2022/07/14 06:21:08;;;;;;;;;16.00;14.00;;;;;27.15;31.43;101363.75;5060109;28;45423;-62
2022/07/14 06:23:33;;;;;;;;;14.75;13.75;;;;;27.19;31.51;101379.56;5040071;28;46640;-62
2022/07/14 06:25:58;;;;;;;;;13.25;13.25;;;;;27.19;31.70;101379.56;5046074;28;45293;-62
2022/07/14 06:28:24;;;;;;;;;17.50;13.75;;;;;27.21;31.12;101380.31;5042494;28;45249;-62
2022/07/14 06:30:49;;;;;;;;;13.25;13.25;;;;;27.23;31.20;101377.50;5042053;28;45241;-62
2022/07/14 06:33:14;;;;;;;;;13.50;11.75;;;;;27.23;31.06;101372.97;5042401;28;45241;-62
2022/07/14 06:35:41;;;;;;;;;12.50;11.75;;;;;27.26;31.83;101371.88;5050263;28;45268;-62
2022/07/14 06:38:06;;;;;;;;;15.50;13.50;;;;;27.28;31.46;101375.31;5042516;28;45325;-62
2022/07/14 06:40:32;;;;;;;;;13.50;13.50;;;;;27.30;31.50;101378.75;5049932;28;45249;-62
2022/07/14 06:42:57;;;;;;;;;12.25;11.00;;;;;27.32;31.33;101381.34;5042007;28;46507;-62
2022/07/14 06:45:23;;;;;;;;;13.50;13.50;;;;;27.36;31.77;101382.84;5041923;28;45391;-62
2022/07/14 06:47:48;;;;;;;;;15.00;13.00;;;;;27.38;31.99;101391.66;5042189;28;45448;-62
2022/07/14 06:50:13;;;;;;;;;13.00;12.50;;;;;27.40;31.66;101387.91;5041949;28;45304;-62
2022/07/14 06:52:39;;;;;;;;;12.50;12.50;;;;;27.44;31.45;101379.59;5023920;28;46683;-62
2022/07/14 06:55:05;;;;;;;;;10.25;10.25;;;;;27.45;32.03;101387.56;5041543;28;45273;-62
2022/07/14 06:57:30;;;;;;;;;9.75;9.75;;;;;27.48;31.76;101381.94;5041944;28;45369;-61
2022/07/14 06:59:56;;;;;;;;;11.75;10.00;;;;;27.49;32.04;101383.66;5041650;28;45322;-62
2022/07/14 07:02:22;;;;;;;;;12.75;11.50;;;;;27.52;31.56;101380.75;5023809;28;46761;-62
2022/07/14 07:06:43;;;;;;;;;9.00;9.00;;;;;27.56;32.37;101381.38;5040985;28;45428;-62
2022/07/14 07:07:34;;;;;;;;;13.75;12.50;;;;;27.60;32.13;101384.66;5041699;28;45400;-62
2022/07/14 07:10:00;;;;;;;;;16.25;15.50;;;;;27.63;32.15;101384.44;5045448;28;45250;-62
2022/07/14 07:12:25;;;;;;;;;15.00;15.00;;;;;27.64;32.15;101380.78;5061600;28;46104;-62
2022/07/14 07:14:51;;;;;;;;;12.50;11.75;;;;;27.67;31.65;101385.94;5061879;28;45281;-62
2022/07/14 07:17:16;;;;;;;;;10.50;10.00;;;;;27.68;31.71;101387.66;5061961;28;45219;-62
2022/07/14 07:19:41;;;;;;;;;8.00;6.75;;;;;27.71;31.54;101388.28;5061701;28;45162;-62
2022/07/14 07:22:07;;;;;;;;;14.75;14.75;;;;;27.72;31.96;101378.34;5050868;28;45327;-62
2022/07/14 07:24:32;;;;;;;;;11.25;10.75;;;;;27.74;31.90;101388.03;5041092;28;45407;-62
2022/07/14 07:26:57;;;;;;;;;13.00;11.00;;;;;27.73;32.38;101383.63;5041724;28;45328;-62
2022/07/14 07:29:23;;;;;;;;;11.25;11.25;;;;;27.76;31.95;101387.94;5041220;28;45497;-62
2022/07/14 07:31:48;;;;;;;;;12.25;11.75;;;;;27.80;31.91;101393.94;5041270;28;46019;-62
2022/07/14 07:34:13;;;;;;;;;12.00;11.75;;;;;27.79;32.04;101393.09;5054615;28;45392;-61
2022/07/14 07:36:39;;;;;;;;;30.50;28.25;;;;;27.83;32.33;101396.41;5051271;28;45382;-61
2022/07/14 07:39:04;;;;;;;;;12.00;10.00;;;;;27.84;31.89;101390.88;5040843;28;45270;-61
2022/07/14 07:41:29;;;;;;;;;13.75;12.25;;;;;27.87;31.84;101387.09;5041120;28;46276;-61
2022/07/14 07:43:57;;;;;;;;;9.75;9.75;;;;;27.89;32.41;101385.13;5041009;28;45258;-61
2022/07/14 07:46:22;;;;;;;;;14.50;12.50;;;;;27.89;32.26;101388.69;5041232;28;45294;-61
2022/07/14 07:48:48;;;;;;;;;12.00;11.00;;;;;27.93;32.23;101386.63;5040903;28;45163;-61
2022/07/14 07:51:13;;;;;;;;;13.25;11.75;;;;;27.93;32.58;101381.22;5040625;28;47043;-61
2022/07/14 07:53:41;;;;;;;;;10.75;10.50;;;;;27.95;32.33;101373.84;5043719;28;45344;-61
2022/07/14 07:56:06;;;;;;;;;11.50;11.00;;;;;27.99;32.25;101377.19;5041480;28;45252;-61
2022/07/14 07:58:31;;;;;;;;;13.25;12.50;;;;;28.01;32.59;101377.91;5022798;28;45243;-61
2022/07/14 08:00:57;;;;;;;;;12.00;11.50;;;;;28.01;32.09;101375.22;5040676;28;45367;-62
2022/07/14 08:03:22;;;;;;;;;11.75;10.75;;;;;28.04;32.11;101375.00;5040844;28;45384;-61
2022/07/14 08:05:47;;;;;;;;;10.50;10.50;;;;;28.05;31.81;101374.88;5041116;28;45364;-61
2022/07/14 08:08:13;;;;;;;;;11.25;10.25;;;;;28.08;32.01;101373.78;5040536;28;45654;-61
2022/07/14 08:10:39;;;;;;;;;12.00;12.00;;;;;28.11;31.79;101370.81;5032363;28;47057;-62
2022/07/14 08:13:05;;;;;;;;;10.75;10.75;;;;;28.15;32.33;101374.16;5060763;28;45281;-62
2022/07/14 08:15:31;;;;;;;;;10.75;10.50;;;;;28.15;31.87;101375.03;5059879;28;45307;-61
2022/07/14 08:17:56;;;;;;;;;12.00;12.00;;;;;28.15;32.13;101364.22;5060529;28;45441;-61
2022/07/14 08:20:22;;;;;;;;;11.25;10.25;;;;;28.20;31.69;101371.94;5060692;28;45456;-61
2022/07/14 08:22:47;;;;;;;;;11.00;10.50;;;;;28.22;32.33;101370.00;5044476;28;45329;-62
2022/07/14 08:25:12;;;;;;;;;12.75;10.00;;;;;28.27;32.07;101369.63;5040487;28;45210;-61
2022/07/14 08:27:38;;;;;;;;;11.75;11.00;;;;;28.30;31.57;101366.66;5040550;28;45278;-61
2022/07/14 08:30:05;;;;;;;;;9.75;9.50;;;;;28.31;31.97;101358.44;5040564;28;45312;-61
2022/07/14 08:32:35;;;;;;;;;10.75;10.75;;;;;28.34;31.80;101360.03;5040092;28;45432;-62
2022/07/14 08:35:02;;;;;;;;;11.00;11.00;;;;;28.35;32.09;101359.94;5040621;28;45308;-62
2022/07/14 08:37:28;;;;;;;;;14.00;14.00;;;;;28.39;32.10;101360.53;5022438;28;45554;-61
2022/07/14 08:39:53;;;;;;;;;10.50;10.50;;;;;28.43;31.72;101359.31;5039831;28;46144;-61
2022/07/14 08:42:19;;;;;;;;;11.25;11.25;;;;;28.44;32.03;101352.06;5040210;28;45241;-61
2022/07/14 08:44:45;;;;;;;;;9.25;9.25;;;;;28.48;31.90;101367.06;5040438;28;45399;-61
2022/07/14 08:47:11;;;;;;;;;11.00;11.00;;;;;28.51;32.12;101370.34;5022079;28;45566;-61
2022/07/14 08:49:36;;;;;;;;;11.75;9.50;;;;;28.54;31.65;101363.81;5040339;28;45389;-61
2022/07/14 08:52:02;;;;;;;;;11.25;11.25;;;;;28.57;31.43;101362.75;5040091;28;45271;-60
2022/07/14 08:54:28;;;;;;;;;9.00;9.00;;;;;28.59;31.92;101361.63;5040109;28;45238;-60
2022/07/14 08:56:54;;;;;;;;;11.00;9.75;;;;;28.62;31.65;101363.22;5035451;28;45348;-60
2022/07/14 08:59:19;;;;;;;;;12.50;12.25;;;;;28.65;31.38;101366.56;5039968;28;46023;-60
2022/07/14 09:01:50;;;;;;;;;9.50;9.00;;;;;28.66;31.55;101352.03;5005274;28;45460;-60
2022/07/14 09:04:15;;;;;;;;;13.00;13.00;;;;;28.73;31.58;101359.66;5040080;28;45237;-62
2022/07/14 09:06:46;;;;;;;;;12.25;10.25;;;;;28.76;31.59;101357.56;5039727;28;45591;-61
2022/07/14 09:09:16;;;;;;;;;9.00;8.25;;;;;28.82;31.15;101358.94;5039765;28;47515;-62
2022/07/14 09:12:08;;;;;;;;;11.00;11.00;;;;;28.88;31.67;101366.53;5058140;28;45358;-61
2022/07/14 09:17:25;;;;;;;;;11.00;11.00;;;;;28.91;31.61;101350.03;5059839;28;45412;-62
2022/07/14 09:20:09;;;;;;;;;10.25;9.00;;;;;29.01;31.62;101353.69;5059463;28;46236;-61
2022/07/14 09:22:37;;;;;;;;;9.50;9.50;;;;;29.05;31.31;101357.00;5045410;28;45338;-62
2022/07/14 09:25:06;;;;;;;;;8.50;8.50;;;;;29.06;31.27;101360.59;5039593;28;45321;-62
2022/07/14 09:27:32;;;;;;;;;9.00;9.00;;;;;29.06;30.93;101347.91;5041010;28;45498;-62
2022/07/14 09:29:57;;;;;;;;;9.00;8.00;;;;;29.10;31.14;101352.06;5043150;28;46082;-62
2022/07/14 09:32:42;;;;;;;;;8.75;8.50;;;;;29.13;31.30;101346.44;5024988;28;45372;-61
2022/07/14 09:35:11;;;;;;;;;8.75;8.75;;;;;29.15;31.13;101352.53;5043316;28;45310;-62
2022/07/14 09:37:38;;;;;;;;;8.00;7.00;;;;;29.17;30.95;101339.75;5042997;28;45328;-62
2022/07/14 09:40:06;;;;;;;;;8.25;8.25;;;;;29.14;30.67;101333.75;5042640;28;45994;-62
2022/07/14 09:42:59;;;;;;;;;9.50;9.50;;;;;29.25;30.72;101351.78;5042805;28;45246;-62
2022/07/14 09:45:28;;;;;;;;;9.25;7.25;;;;;29.25;30.62;101351.78;5042987;28;45286;-62
2022/07/14 09:48:12;;;;;;;;;11.00;9.00;;;;;29.26;30.35;101351.66;5042888;28;45282;-62
2022/07/14 09:51:01;;;;;;;;;8.25;8.00;;;;;29.30;30.64;101360.41;5042716;28;45360;-62
2022/07/14 09:53:32;;;;;;;;;11.25;10.00;;;;;29.33;30.49;101357.44;5042391;28;45274;-62
2022/07/14 09:56:03;;;;;;;;;10.00;10.00;;;;;29.36;30.11;101365.31;5025108;28;45426;-62
2022/07/14 09:58:48;;;;;;;;;7.50;7.50;;;;;29.38;30.23;101360.59;5038239;28;45494;-62
2022/07/14 10:01:15;;;;;;;;;8.75;5.75;;;;;29.41;29.74;101356.78;5024472;28;45709;-61
2022/07/14 10:03:45;;;;;;;;;10.75;10.00;;;;;29.45;30.10;101352.84;5042644;28;45226;-62
2022/07/14 10:06:11;;;;;;;;;8.00;6.25;;;;;29.49;30.13;101347.00;5042797;28;45251;-62
2022/07/14 10:08:43;;;;;;;;;8.25;7.00;;;;;29.47;29.85;101340.91;5042132;28;45368;-62
2022/07/14 10:11:09;;;;;;;;;7.00;6.50;;;;;29.59;29.73;101357.06;5056237;28;46454;-62
2022/07/14 10:13:36;;;;;;;;;6.75;6.75;;;;;29.64;29.50;101354.81;5062606;28;45304;-62
2022/07/14 10:16:02;;;;;;;;;5.00;5.00;;;;;29.69;29.29;101365.28;5062744;28;45398;-63
2022/07/14 10:18:27;;;;;;;;;7.00;7.00;;;;;29.72;29.40;101365.84;5062886;28;45422;-62
2022/07/14 10:20:56;;;;;;;;;7.75;7.75;;;;;29.78;28.95;101359.91;5061568;28;46329;-62
2022/07/14 10:23:23;;;;;;;;;6.50;6.00;;;;;29.87;28.43;101354.69;5042327;28;45258;-62
2022/07/14 10:25:59;;;;;;;;;4.75;4.75;;;;;29.95;28.86;101357.59;5024498;28;45274;-62
2022/07/14 10:28:26;;;;;;;;;7.00;5.25;;;;;30.04;28.68;101362.22;5024388;28;45379;-62
2022/07/14 10:31:00;;;;;;;;;7.75;5.75;;;;;30.14;28.69;101359.59;5041713;28;46792;-61
2022/07/14 10:33:35;;;;;;;;;7.50;6.75;;;;;30.27;28.66;101353.94;5042125;28;45293;-62
2022/07/14 10:36:39;;;;;;;;;7.25;7.00;;;;;30.37;28.47;101362.94;5043901;28;45344;-62
2022/07/14 10:39:27;;;;;;;;;7.75;6.00;;;;;30.52;28.44;101351.78;5040796;28;45470;-62
2022/07/14 10:42:17;;;;;;;;;8.50;7.75;;;;;30.69;28.42;101352.94;5042025;28;45341;-62
2022/07/14 10:44:47;;;;;;;;;8.50;7.50;;;;;30.83;28.64;101352.56;5051558;28;45372;-63
2022/07/14 10:47:15;;;;;;;;;5.75;5.50;;;;;30.99;28.39;101353.88;5062006;28;45247;-62
2022/07/14 10:50:02;;;;;;;;;6.00;6.00;;;;;31.26;28.48;101350.50;5061949;28;45257;-62
2022/07/14 10:52:29;;;;;;;;;7.00;7.00;;;;;31.54;28.69;101373.19;5061723;28;45424;-62
2022/07/14 10:55:15;;;;;;;;;6.25;6.25;;;;;32.03;29.57;101364.97;5061874;28;45454;-63
2022/07/14 10:57:58;;;;;;;;;8.50;8.50;;;;;32.58;29.04;101358.75;5061924;28;45311;-63
2022/07/14 11:00:46;;;;;;;;;5.50;5.50;;;;;33.12;29.25;101365.31;5061536;28;45549;-62
2022/07/14 11:03:36;;;;;;;;;10.00;9.00;;;;;33.72;29.18;101372.00;5043536;28;47348;-62
2022/07/14 11:06:06;;;;;;;;;8.50;8.50;;;;;34.25;29.06;101361.94;5061692;28;45271;-62
2022/07/14 11:08:33;;;;;;;;;6.50;6.50;;;;;34.80;28.99;101358.75;5061670;28;45337;-62
2022/07/14 11:11:00;;;;;;;;;6.75;6.50;;;;;35.35;28.93;101361.09;5060854;28;45549;-62
2022/07/14 11:13:26;;;;;;;;;8.00;8.00;;;;;35.90;28.69;101362.28;5061369;28;45260;-62
2022/07/14 11:15:53;;;;;;;;;5.00;5.00;;;;;36.46;28.34;101365.03;5061518;28;45187;-62
2022/07/14 11:18:18;;;;;;;;;8.25;7.50;;;;;37.04;28.09;101367.47;5043611;28;45459;-62
2022/07/14 11:20:50;;;;;;;;;5.00;5.00;;;;;37.67;28.13;101356.38;5043100;28;45518;-62